Time;durP1;ratioP1;P1;durP2;ratioP2;P2;SDS_P1;SDS_P2;PMS_P1;PMS_P2;Temp;Humidity;BMP_temperature;BMP_pressure;BME280_temperature;BME280_humidity;BME280_pressure;Samples;Min_cycle;Max_cycle;Signal;HPM_P1;HPM_P2
2022/03/16 00:02:01;;;;;;;54.70;25.35;;;3.30;99.90;;;;;;5051103;28;20411;-66
2022/03/16 00:04:26;;;;;;;53.03;25.52;;;3.30;99.90;;;;;;5050033;28;20044;-66
2022/03/16 00:06:52;;;;;;;59.13;29.65;;;3.30;99.90;;;;;;5052184;28;20040;-66
2022/03/16 00:09:17;;;;;;;48.53;25.35;;;3.30;99.90;;;;;;5049310;28;20068;-67
2022/03/16 00:11:43;;;;;;;57.90;26.27;;;3.30;99.90;;;;;;5055088;28;20035;-66
2022/03/16 00:14:09;;;;;;;55.47;24.73;;;3.30;99.90;;;;;;5033510;28;20469;-66
2022/03/16 00:16:34;;;;;;;51.97;25.73;;;3.30;99.90;;;;;;5050793;28;20499;-67
2022/03/16 00:19:00;;;;;;;47.97;24.00;;;3.30;99.90;;;;;;5052782;28;20527;-66
2022/03/16 00:21:26;;;;;;;34.90;19.45;;;3.30;99.90;;;;;;5065427;28;20068;-66
2022/03/16 00:23:51;;;;;;;37.85;20.63;;;3.20;99.90;;;;;;5064640;28;20543;-67
2022/03/16 00:26:17;;;;;;;32.70;19.05;;;3.20;99.90;;;;;;5057825;28;20048;-66
2022/03/16 00:28:42;;;;;;;35.42;18.63;;;3.10;99.90;;;;;;5035235;28;20033;-66
2022/03/16 00:31:08;;;;;;;34.78;19.10;;;3.10;99.90;;;;;;5050231;28;20379;-66
2022/03/16 00:33:34;;;;;;;28.27;16.05;;;3.00;99.90;;;;;;5051468;28;20041;-66
2022/03/16 00:35:59;;;;;;;27.60;16.50;;;3.00;99.90;;;;;;5048212;28;20633;-66
2022/03/16 00:38:26;;;;;;;31.63;18.15;;;3.00;99.90;;;;;;5045540;28;20425;-66
2022/03/16 00:40:52;;;;;;;38.25;19.27;;;3.00;99.90;;;;;;5049901;28;20573;-66
2022/03/16 00:43:17;;;;;;;37.92;18.52;;;3.00;99.90;;;;;;5047902;28;20040;-66
2022/03/16 00:45:43;;;;;;;39.90;18.35;;;3.00;99.90;;;;;;5065295;28;20044;-66
2022/03/16 00:48:09;;;;;;;47.33;19.48;;;3.00;99.90;;;;;;5031757;28;20051;-67
2022/03/16 00:50:34;;;;;;;48.05;22.95;;;3.00;99.90;;;;;;5051702;28;20387;-66
2022/03/16 00:53:00;;;;;;;40.88;20.45;;;3.00;99.90;;;;;;5056328;28;20048;-66
2022/03/16 00:55:26;;;;;;;35.20;19.63;;;3.00;99.90;;;;;;5069528;28;20086;-66
2022/03/16 00:57:52;;;;;;;43.40;22.13;;;3.00;99.90;;;;;;5056177;28;20037;-66
2022/03/16 01:00:17;;;;;;;43.00;21.83;;;3.10;99.90;;;;;;5047468;28;20040;-66
2022/03/16 01:02:43;;;;;;;71.47;22.70;;;3.00;99.90;;;;;;5049213;28;20500;-67
2022/03/16 01:05:09;;;;;;;102.20;24.48;;;3.00;99.90;;;;;;5050640;28;20040;-66
2022/03/16 01:07:34;;;;;;;79.82;22.17;;;2.90;99.90;;;;;;5045661;28;20071;-67
2022/03/16 01:10:00;;;;;;;45.70;18.90;;;2.70;99.90;;;;;;5053805;28;20062;-66
2022/03/16 01:12:26;;;;;;;31.13;17.40;;;2.70;99.90;;;;;;5054821;28;20131;-67
2022/03/16 01:14:52;;;;;;;40.85;19.20;;;2.60;99.90;;;;;;5066533;28;20040;-66
2022/03/16 01:17:17;;;;;;;37.22;20.08;;;2.50;99.90;;;;;;5048905;28;20033;-66
2022/03/16 01:19:43;;;;;;;34.90;19.15;;;2.50;99.90;;;;;;5054541;28;20045;-66
2022/03/16 01:22:09;;;;;;;39.17;19.27;;;2.50;99.90;;;;;;5053969;28;20882;-66
2022/03/16 01:24:35;;;;;;;35.45;20.13;;;2.50;99.90;;;;;;5047174;28;20056;-66
2022/03/16 01:27:01;;;;;;;42.17;21.42;;;2.50;99.90;;;;;;5045304;28;20033;-66
2022/03/16 01:29:27;;;;;;;38.63;21.95;;;2.50;99.90;;;;;;5048271;28;20090;-66
2022/03/16 01:31:53;;;;;;;50.63;23.17;;;2.50;99.90;;;;;;5034418;28;20100;-66
2022/03/16 01:34:20;;;;;;;47.40;22.90;;;2.50;99.90;;;;;;5053322;28;20037;-66
2022/03/16 01:36:46;;;;;;;43.55;22.98;;;2.60;99.90;;;;;;5054461;28;20131;-66
2022/03/16 01:39:12;;;;;;;50.67;23.75;;;2.60;99.90;;;;;;5052547;28;20856;-66
2022/03/16 01:41:37;;;;;;;66.07;27.92;;;2.60;99.90;;;;;;5053952;28;20074;-66
2022/03/16 01:44:04;;;;;;;86.35;32.55;;;2.70;99.90;;;;;;5058312;28;20128;-65
2022/03/16 01:46:29;;;;;;;60.05;26.27;;;2.70;99.90;;;;;;5048791;28;20071;-65
2022/03/16 01:48:55;;;;;;;62.20;27.13;;;2.80;99.90;;;;;;5055417;28;20040;-65
2022/03/16 01:51:21;;;;;;;61.60;27.90;;;2.80;99.90;;;;;;5051111;28;20151;-66
2022/03/16 01:53:48;;;;;;;57.30;25.90;;;3.00;99.90;;;;;;5055329;28;20044;-66
2022/03/16 01:56:15;;;;;;;57.03;26.63;;;2.90;99.90;;;;;;5048111;28;20043;-66
2022/03/16 01:58:41;;;;;;;63.22;27.05;;;2.90;99.90;;;;;;5054442;28;20067;-66
2022/03/16 02:01:07;;;;;;;57.97;28.17;;;2.90;99.90;;;;;;5053895;28;20065;-66
2022/03/16 02:03:32;;;;;;;61.50;26.25;;;2.90;99.90;;;;;;5056513;28;20484;-66
2022/03/16 02:05:59;;;;;;;67.05;30.25;;;2.90;99.90;;;;;;5041544;28;22724;-66
2022/03/16 02:08:29;;;;;;;79.97;31.17;;;3.00;99.90;;;;;;5048605;28;20055;-66
2022/03/16 02:10:55;;;;;;;71.47;32.65;;;3.00;99.90;;;;;;5066769;28;20040;-66
2022/03/16 02:13:20;;;;;;;76.68;31.35;;;3.00;99.90;;;;;;5043957;28;22350;-66
2022/03/16 02:15:46;;;;;;;76.32;32.85;;;3.00;99.90;;;;;;5051902;28;20184;-66
2022/03/16 02:18:12;;;;;;;73.50;31.70;;;3.00;99.90;;;;;;5057363;28;20040;-66
2022/03/16 02:20:38;;;;;;;68.07;30.75;;;3.00;99.90;;;;;;5049179;28;20511;-66
2022/03/16 02:23:08;;;;;;;66.03;30.15;;;3.00;99.90;;;;;;5051925;28;20076;-66
2022/03/16 02:25:51;;;;;;;105.55;28.02;;;2.90;99.90;;;;;;5054160;28;20070;-66
2022/03/16 02:28:18;;;;;;;96.13;22.95;;;2.80;99.90;;;;;;5048970;28;20488;-66
2022/03/16 02:30:43;;;;;;;81.15;22.58;;;2.60;99.90;;;;;;5051790;28;20448;-66
2022/03/16 02:33:09;;;;;;;37.60;19.70;;;2.40;99.90;;;;;;5054636;28;20064;-65
2022/03/16 02:35:35;;;;;;;32.03;18.45;;;2.30;99.90;;;;;;5031879;28;20520;-66
2022/03/16 02:38:03;;;;;;;96.35;21.42;;;2.30;99.90;;;;;;5047854;28;20045;-66
2022/03/16 02:40:29;;;;;;;126.57;22.05;;;2.20;99.90;;;;;;5053379;28;20359;-66
2022/03/16 02:42:54;;;;;;;141.25;23.50;;;2.00;99.90;;;;;;5049592;28;20071;-66
2022/03/16 02:45:20;;;;;;;151.95;23.23;;;1.90;99.90;;;;;;5048472;28;20136;-66
2022/03/16 02:47:47;;;;;;;172.82;25.05;;;1.80;99.90;;;;;;5052929;28;20413;-66
2022/03/16 02:50:14;;;;;;;192.70;29.40;;;1.70;99.90;;;;;;5057230;28;20193;-66
2022/03/16 02:52:41;;;;;;;249.30;34.17;;;1.70;99.90;;;;;;5074654;28;20748;-67
2022/03/16 02:55:07;;;;;;;262.88;34.22;;;1.60;99.90;;;;;;5054906;28;20063;-66
2022/03/16 02:57:34;;;;;;;226.13;31.10;;;1.60;99.90;;;;;;5056873;28;20037;-66
2022/03/16 02:59:59;;;;;;;132.32;25.30;;;1.60;99.90;;;;;;5045663;28;20292;-66
2022/03/16 03:02:25;;;;;;;119.30;24.35;;;1.60;99.90;;;;;;5047272;28;20479;-66
2022/03/16 03:04:51;;;;;;;61.60;21.83;;;1.60;99.90;;;;;;5055285;28;20040;-66
2022/03/16 03:07:16;;;;;;;193.07;31.58;;;1.60;99.90;;;;;;5056732;28;20040;-66
2022/03/16 03:09:42;;;;;;;119.97;24.75;;;1.50;99.90;;;;;;5050442;28;20032;-65
2022/03/16 03:12:08;;;;;;;195.00;29.15;;;1.60;99.90;;;;;;5051357;28;20082;-66
2022/03/16 03:14:34;;;;;;;254.27;33.88;;;1.60;99.90;;;;;;5039946;28;20037;-67
2022/03/16 03:16:59;;;;;;;79.15;22.67;;;1.60;99.90;;;;;;5048013;28;20045;-66
2022/03/16 03:19:26;;;;;;;116.38;26.23;;;1.60;99.90;;;;;;5053223;28;20114;-66
2022/03/16 03:21:51;;;;;;;108.13;26.48;;;1.70;99.90;;;;;;5055301;28;20052;-66
2022/03/16 03:24:17;;;;;;;89.10;24.08;;;1.70;99.90;;;;;;5052024;28;20662;-66
2022/03/16 03:26:43;;;;;;;40.90;21.30;;;1.80;99.90;;;;;;5069516;28;20694;-65
2022/03/16 03:29:09;;;;;;;62.53;21.80;;;1.80;99.90;;;;;;5065039;28;20042;-65
2022/03/16 03:31:35;;;;;;;79.70;23.88;;;1.80;99.90;;;;;;5059157;28;20037;-65
2022/03/16 03:34:02;;;;;;;130.32;26.10;;;1.80;99.90;;;;;;5063743;28;20640;-65
2022/03/16 03:36:27;;;;;;;84.05;22.60;;;1.90;99.90;;;;;;5059611;28;20068;-65
2022/03/16 03:38:53;;;;;;;111.18;24.85;;;1.80;99.90;;;;;;5054656;28;20067;-65
2022/03/16 03:41:18;;;;;;;184.15;29.65;;;1.90;99.90;;;;;;5050795;28;20178;-66
2022/03/16 03:43:44;;;;;;;182.88;29.55;;;1.90;99.90;;;;;;5058215;28;20036;-66
2022/03/16 03:46:10;;;;;;;136.60;27.60;;;1.90;99.90;;;;;;5055427;28;20094;-65
2022/03/16 03:48:36;;;;;;;97.70;24.98;;;1.90;99.90;;;;;;5055324;28;20045;-65
2022/03/16 03:51:02;;;;;;;127.68;26.52;;;1.90;99.90;;;;;;5057837;28;20033;-65
2022/03/16 03:53:27;;;;;;;95.68;25.65;;;1.90;99.90;;;;;;5050865;28;20036;-65
2022/03/16 03:55:53;;;;;;;110.65;26.25;;;1.90;99.90;;;;;;5051852;28;20051;-65
2022/03/16 03:58:18;;;;;;;124.93;27.17;;;2.00;99.90;;;;;;5049372;28;20476;-65
2022/03/16 04:00:44;;;;;;;173.07;29.02;;;2.00;99.90;;;;;;5051121;28;20501;-65
2022/03/16 04:03:09;;;;;;;160.65;29.75;;;2.00;99.90;;;;;;5049563;28;20045;-65
2022/03/16 04:05:35;;;;;;;146.32;28.50;;;2.10;99.90;;;;;;5054157;28;20079;-65
2022/03/16 04:08:00;;;;;;;94.20;24.67;;;2.10;99.90;;;;;;5047821;28;20048;-65
2022/03/16 04:10:26;;;;;;;182.70;30.80;;;2.10;99.90;;;;;;5066043;28;20036;-65
2022/03/16 04:12:51;;;;;;;189.63;31.85;;;2.20;99.90;;;;;;5052551;28;20489;-65
2022/03/16 04:15:20;;;;;;;190.93;31.10;;;2.10;99.90;;;;;;5038287;28;20033;-65
2022/03/16 04:17:46;;;;;;;172.02;30.80;;;2.10;99.90;;;;;;5051848;28;20036;-66
2022/03/16 04:20:12;;;;;;;207.93;32.35;;;2.10;99.90;;;;;;5049221;28;20096;-65
2022/03/16 04:22:37;;;;;;;93.63;27.77;;;2.10;99.90;;;;;;5054815;28;20415;-65
2022/03/16 04:25:04;;;;;;;146.57;31.90;;;2.10;99.90;;;;;;5048880;28;20091;-65
2022/03/16 04:27:30;;;;;;;191.68;33.63;;;2.20;99.90;;;;;;5050901;28;20123;-65
2022/03/16 04:29:55;;;;;;;156.85;31.48;;;2.10;99.90;;;;;;5050987;28;20156;-65
2022/03/16 04:32:21;;;;;;;203.93;34.22;;;2.20;99.90;;;;;;5051990;28;20130;-65
2022/03/16 04:34:47;;;;;;;208.30;35.53;;;2.20;99.90;;;;;;5054247;28;20455;-65
2022/03/16 04:37:12;;;;;;;144.90;31.60;;;2.30;99.90;;;;;;5041069;28;20124;-65
2022/03/16 04:39:38;;;;;;;131.68;32.53;;;2.30;99.90;;;;;;5057959;28;20115;-67
2022/03/16 04:42:05;;;;;;;161.82;34.13;;;2.40;99.90;;;;;;5056612;28;20083;-65
2022/03/16 04:44:30;;;;;;;113.82;30.35;;;2.40;99.90;;;;;;5064494;28;20090;-66
2022/03/16 04:46:56;;;;;;;160.68;33.25;;;2.40;99.90;;;;;;5057440;28;20444;-65
2022/03/16 04:49:21;;;;;;;122.65;32.30;;;2.40;99.90;;;;;;5050325;28;20045;-65
2022/03/16 04:51:47;;;;;;;259.65;40.72;;;2.50;99.90;;;;;;5057845;28;20447;-66
2022/03/16 04:54:14;;;;;;;202.85;35.83;;;2.50;99.90;;;;;;5047721;28;20127;-65
2022/03/16 04:56:40;;;;;;;201.68;36.55;;;2.50;99.90;;;;;;5048084;28;20048;-66
2022/03/16 04:59:06;;;;;;;221.50;38.97;;;2.40;99.90;;;;;;5047985;28;20045;-66
2022/03/16 05:01:31;;;;;;;154.82;30.48;;;2.40;99.90;;;;;;5052983;28;20032;-65
2022/03/16 05:03:57;;;;;;;184.90;31.85;;;2.40;99.90;;;;;;5060073;28;20123;-66
2022/03/16 05:06:23;;;;;;;165.38;32.20;;;2.40;99.90;;;;;;5064971;28;20129;-65
2022/03/16 05:08:50;;;;;;;206.25;36.35;;;2.40;99.90;;;;;;5045650;28;20040;-66
2022/03/16 05:11:16;;;;;;;213.05;37.53;;;2.40;99.90;;;;;;5047462;28;20095;-65
2022/03/16 05:13:43;;;;;;;200.80;37.35;;;2.40;99.90;;;;;;5050492;28;20446;-65
2022/03/16 05:16:09;;;;;;;271.50;39.60;;;2.40;99.90;;;;;;5058438;28;20445;-65
2022/03/16 05:18:35;;;;;;;259.02;38.10;;;2.40;99.90;;;;;;5055127;28;20063;-65
2022/03/16 05:21:03;;;;;;;177.20;34.53;;;2.40;99.90;;;;;;5055191;28;20087;-65
2022/03/16 05:23:29;;;;;;;141.65;30.92;;;2.30;99.90;;;;;;5051427;28;20107;-65
2022/03/16 05:25:55;;;;;;;129.07;27.95;;;2.30;99.90;;;;;;5058440;28;20564;-64
2022/03/16 05:28:21;;;;;;;100.63;26.83;;;2.20;99.90;;;;;;5053502;28;20040;-65
2022/03/16 05:30:47;;;;;;;109.13;25.65;;;2.20;99.90;;;;;;5056410;28;20041;-64
2022/03/16 05:33:12;;;;;;;133.43;28.40;;;2.20;99.90;;;;;;5051716;28;20064;-64
2022/03/16 05:35:40;;;;;;;116.45;27.85;;;2.20;99.90;;;;;;5048159;28;20048;-64
2022/03/16 05:38:07;;;;;;;64.57;23.95;;;2.10;99.90;;;;;;5058365;28;20041;-65
2022/03/16 05:40:32;;;;;;;81.60;24.63;;;2.10;99.90;;;;;;5042370;28;20129;-64
2022/03/16 05:42:58;;;;;;;76.88;24.98;;;2.10;99.90;;;;;;5063207;28;20094;-65
2022/03/16 05:45:23;;;;;;;61.85;23.45;;;2.20;99.90;;;;;;5037920;28;20041;-65
2022/03/16 05:47:49;;;;;;;89.45;25.30;;;2.20;99.90;;;;;;5057515;28;20571;-65
2022/03/16 05:50:15;;;;;;;53.42;22.17;;;2.20;99.90;;;;;;5055557;28;20083;-64
2022/03/16 05:52:43;;;;;;;119.57;26.05;;;2.20;99.90;;;;;;5049058;28;20396;-65
2022/03/16 05:55:09;;;;;;;97.70;25.88;;;2.20;99.90;;;;;;5051434;28;20052;-65
2022/03/16 05:57:39;;;;;;;73.70;22.70;;;2.30;99.90;;;;;;5056725;28;20033;-65
2022/03/16 06:00:06;;;;;;;;;;;2.20;99.90;;;;;;5054655;28;20362;-65
2022/03/16 06:02:31;;;;;;;60.30;19.27;;;2.20;99.90;;;;;;5051332;28;19927;-65
2022/03/16 06:04:57;;;;;;;98.20;21.58;;;2.10;99.90;;;;;;5050578;28;20123;-64
2022/03/16 06:07:22;;;;;;;58.65;20.42;;;2.10;99.90;;;;;;5049288;28;20120;-65
2022/03/16 06:09:48;;;;;;;41.22;19.50;;;2.10;99.90;;;;;;5031359;28;20686;-66
2022/03/16 06:12:13;;;;;;;52.42;20.25;;;2.10;99.90;;;;;;5035528;28;20033;-64
2022/03/16 06:14:39;;;;;;;59.80;20.60;;;2.10;99.90;;;;;;5034901;28;20622;-69
2022/03/16 06:17:04;;;;;;;101.75;23.15;;;2.10;99.90;;;;;;5059615;28;20048;-65
2022/03/16 06:19:30;;;;;;;57.28;21.52;;;2.10;99.90;;;;;;5058285;28;20472;-65
2022/03/16 06:21:56;;;;;;;102.95;24.10;;;2.10;99.90;;;;;;5056138;28;20049;-65
2022/03/16 06:24:21;;;;;;;59.15;21.88;;;2.20;99.90;;;;;;5046227;28;20460;-64
2022/03/16 06:26:47;;;;;;;93.47;23.63;;;2.20;99.90;;;;;;5047675;28;20499;-65
2022/03/16 06:29:12;;;;;;;48.95;22.63;;;2.20;99.90;;;;;;5048376;28;20460;-65
2022/03/16 06:31:38;;;;;;;109.00;26.60;;;2.20;99.90;;;;;;5053269;28;20083;-65
2022/03/16 06:34:03;;;;;;;58.60;23.08;;;2.30;99.90;;;;;;5055657;28;20041;-65
2022/03/16 06:36:29;;;;;;;88.68;25.35;;;2.30;99.90;;;;;;5058020;28;20041;-64
2022/03/16 06:38:56;;;;;;;76.78;23.85;;;2.40;99.90;;;;;;5059660;28;20029;-64
2022/03/16 06:41:22;;;;;;;95.50;26.88;;;2.40;99.90;;;;;;5054459;28;20330;-64
2022/03/16 06:43:48;;;;;;;69.70;25.75;;;2.50;99.90;;;;;;5054114;28;20056;-64
2022/03/16 06:46:14;;;;;;;70.88;25.83;;;2.50;99.90;;;;;;5064345;28;20059;-64
2022/03/16 06:48:40;;;;;;;83.55;28.80;;;2.60;99.90;;;;;;5060986;28;20044;-66
2022/03/16 06:51:06;;;;;;;75.03;29.15;;;2.60;99.90;;;;;;5055580;28;20037;-64
2022/03/16 06:53:31;;;;;;;75.28;30.63;;;2.70;99.90;;;;;;5058616;28;20044;-64
2022/03/16 06:55:57;;;;;;;87.20;29.88;;;2.80;99.90;;;;;;5061625;28;20434;-64
2022/03/16 06:58:22;;;;;;;95.90;28.75;;;2.80;99.90;;;;;;5057819;28;20520;-65
2022/03/16 07:00:48;;;;;;;59.10;26.95;;;2.90;99.90;;;;;;5069492;28;20407;-64
2022/03/16 07:03:14;;;;;;;70.85;28.75;;;3.00;99.90;;;;;;5062353;28;20032;-64
2022/03/16 07:05:40;;;;;;;74.97;28.73;;;3.00;99.90;;;;;;5066361;28;20035;-64
2022/03/16 07:08:08;;;;;;;81.53;31.15;;;3.10;99.90;;;;;;5035255;28;20144;-64
2022/03/16 07:10:36;;;;;;;70.32;29.60;;;3.20;99.90;;;;;;5056035;28;20083;-65
2022/03/16 07:13:02;;;;;;;63.92;29.73;;;3.20;99.90;;;;;;5035851;28;20202;-64
2022/03/16 07:15:30;;;;;;;68.22;31.20;;;3.30;99.90;;;;;;5057086;28;20048;-65
2022/03/16 07:17:56;;;;;;;69.00;31.70;;;3.40;99.90;;;;;;5055520;28;20401;-67
2022/03/16 07:20:22;;;;;;;67.75;30.20;;;3.50;99.90;;;;;;5063640;28;20064;-64
2022/03/16 07:23:03;;;;;;;70.97;32.20;;;3.50;99.90;;;;;;5055112;28;20127;-64
2022/03/16 07:25:29;;;;;;;63.15;31.75;;;3.60;99.90;;;;;;5038996;28;20098;-64
2022/03/16 07:27:54;;;;;;;73.72;32.80;;;3.70;99.90;;;;;;5050876;28;20033;-65
2022/03/16 07:30:20;;;;;;;80.43;33.83;;;3.80;99.90;;;;;;5058977;28;20074;-64
2022/03/16 07:32:46;;;;;;;74.15;33.33;;;3.90;99.90;;;;;;5033919;28;20135;-64
2022/03/16 07:35:12;;;;;;;71.03;33.03;;;3.90;99.90;;;;;;5056929;28;20052;-64
2022/03/16 07:37:39;;;;;;;70.93;33.72;;;4.00;99.90;;;;;;5059520;28;20115;-65
2022/03/16 07:40:06;;;;;;;69.20;31.45;;;4.10;99.90;;;;;;5057440;28;20045;-65
2022/03/16 07:42:32;;;;;;;64.95;30.42;;;4.10;99.90;;;;;;5064803;28;20029;-65
2022/03/16 07:44:58;;;;;;;67.43;31.65;;;4.10;99.90;;;;;;5037107;28;20032;-64
2022/03/16 07:47:25;;;;;;;71.80;33.30;;;4.20;99.90;;;;;;5051478;28;20071;-65
2022/03/16 07:49:51;;;;;;;81.78;36.03;;;4.40;99.90;;;;;;5062783;28;20072;-65
2022/03/16 07:52:17;;;;;;;91.35;39.20;;;4.70;99.90;;;;;;5055440;28;20449;-65
2022/03/16 07:54:43;;;;;;;90.60;38.95;;;5.00;99.90;;;;;;5060438;28;20071;-65
2022/03/16 07:57:08;;;;;;;88.45;39.88;;;5.30;99.90;;;;;;5051824;28;20045;-66
2022/03/16 07:59:34;;;;;;;79.90;37.35;;;5.70;99.90;;;;;;5063490;28;20507;-66
2022/03/16 08:02:00;;;;;;;81.63;37.90;;;5.90;99.90;;;;;;5059512;28;21035;-65
2022/03/16 08:04:25;;;;;;;79.38;38.72;;;6.20;99.90;;;;;;5055352;28;20032;-66
2022/03/16 08:06:51;;;;;;;74.40;36.58;;;6.30;99.90;;;;;;5053818;28;20033;-65
2022/03/16 08:09:16;;;;;;;67.03;34.05;;;6.40;99.90;;;;;;5037548;28;20118;-68
2022/03/16 08:11:42;;;;;;;61.35;32.33;;;6.30;99.90;;;;;;5061729;28;20044;-65
2022/03/16 08:14:08;;;;;;;62.60;33.33;;;6.30;99.90;;;;;;5066918;28;20105;-64
2022/03/16 08:16:33;;;;;;;66.68;32.85;;;6.30;99.90;;;;;;5062004;28;20051;-65
2022/03/16 08:18:59;;;;;;;58.88;31.83;;;6.40;99.90;;;;;;5063091;28;20038;-66
2022/03/16 08:21:25;;;;;;;60.13;31.95;;;6.40;99.90;;;;;;5059311;28;20052;-65
2022/03/16 08:23:51;;;;;;;61.65;32.65;;;6.50;99.90;;;;;;5065983;28;20044;-65
2022/03/16 08:26:17;;;;;;;64.13;32.47;;;6.60;99.90;;;;;;5064532;28;20044;-65
2022/03/16 08:28:45;;;;;;;66.65;35.10;;;6.70;99.90;;;;;;5063602;28;20040;-65
2022/03/16 08:31:11;;;;;;;64.82;32.90;;;6.80;99.90;;;;;;5037888;28;20210;-66
2022/03/16 08:33:37;;;;;;;59.67;32.67;;;6.80;99.90;;;;;;5056088;28;20041;-66
2022/03/16 08:36:07;;;;;;;63.05;33.42;;;6.80;99.90;;;;;;5058507;28;20090;-65
2022/03/16 08:38:36;;;;;;;61.95;34.30;;;6.90;99.90;;;;;;5055751;28;20560;-66
2022/03/16 08:41:02;;;;;;;62.88;32.90;;;7.00;99.90;;;;;;5058045;28;20121;-66
2022/03/16 08:43:28;;;;;;;60.90;31.75;;;7.10;99.90;;;;;;5050784;28;20045;-66
2022/03/16 08:45:53;;;;;;;67.07;34.10;;;7.20;99.90;;;;;;5057662;28;20044;-65
2022/03/16 08:48:19;;;;;;;61.85;32.33;;;7.50;99.90;;;;;;5068013;28;20483;-66
2022/03/16 08:50:45;;;;;;;57.58;31.08;;;7.70;99.90;;;;;;5070610;28;20051;-66
2022/03/16 08:53:10;;;;;;;50.70;28.15;;;7.80;99.90;;;;;;5066762;28;20391;-64
2022/03/16 08:55:37;;;;;;;53.20;28.75;;;8.10;99.90;;;;;;5053320;28;20124;-64
2022/03/16 08:58:03;;;;;;;53.03;28.77;;;8.30;99.90;;;;;;5064725;28;20040;-65
2022/03/16 09:00:29;;;;;;;53.88;27.77;;;8.50;99.90;;;;;;5061826;28;20032;-65
2022/03/16 09:02:56;;;;;;;44.90;26.25;;;8.70;99.90;;;;;;5061005;28;20047;-65
2022/03/16 09:05:22;;;;;;;49.58;25.83;;;8.90;99.90;;;;;;5067280;28;20428;-67
2022/03/16 09:07:48;;;;;;;49.90;27.60;;;9.10;99.90;;;;;;5068163;28;20044;-66
2022/03/16 09:10:14;;;;;;;50.67;27.65;;;9.30;99.90;;;;;;5051199;28;20111;-66
2022/03/16 09:12:40;;;;;;;41.92;23.17;;;9.60;99.90;;;;;;5055080;28;20044;-66
2022/03/16 09:15:06;;;;;;;47.83;26.15;;;9.80;99.90;;;;;;5052084;28;20200;-67
2022/03/16 09:17:33;;;;;;;44.50;24.83;;;10.00;99.90;;;;;;5051026;28;20068;-63
2022/03/16 09:19:59;;;;;;;42.88;23.80;;;10.10;99.90;;;;;;5083139;28;20045;-64
2022/03/16 09:22:24;;;;;;;36.08;20.92;;;10.20;99.90;;;;;;5047179;28;20044;-63
2022/03/16 09:24:50;;;;;;;38.88;18.98;;;10.30;99.90;;;;;;5050089;28;20119;-63
2022/03/16 09:27:16;;;;;;;36.38;21.48;;;10.20;98.40;;;;;;5050924;28;20059;-68
2022/03/16 09:29:46;;;;;;;35.47;20.88;;;10.30;99.90;;;;;;5053136;28;20037;-65
2022/03/16 09:32:13;;;;;;;32.38;18.92;;;10.30;99.90;;;;;;5049534;28;20477;-64
2022/03/16 09:34:40;;;;;;;34.20;19.17;;;10.50;99.90;;;;;;5055298;28;20132;-65
2022/03/16 09:37:07;;;;;;;29.25;17.55;;;10.60;99.90;;;;;;5067291;28;20144;-66
2022/03/16 09:39:33;;;;;;;32.65;17.88;;;10.80;98.60;;;;;;5059699;28;20106;-64
2022/03/16 09:41:59;;;;;;;26.38;16.02;;;10.90;97.60;;;;;;5069194;28;20127;-66
2022/03/16 09:44:30;;;;;;;29.30;16.55;;;10.90;94.80;;;;;;5070290;28;20076;-65
2022/03/16 09:46:57;;;;;;;28.10;15.98;;;11.00;93.30;;;;;;5069694;28;20123;-66
2022/03/16 09:49:23;;;;;;;22.88;14.98;;;11.00;94.70;;;;;;5063791;28;20044;-69
2022/03/16 09:51:50;;;;;;;23.25;13.70;;;11.10;92.00;;;;;;5052760;28;20077;-65
2022/03/16 09:54:16;;;;;;;22.75;12.98;;;11.10;90.40;;;;;;5069919;28;20395;-64
2022/03/16 09:56:43;;;;;;;19.98;12.10;;;11.10;90.80;;;;;;5082754;28;20048;-65
2022/03/16 09:59:10;;;;;;;22.88;12.70;;;11.10;88.70;;;;;;5047053;28;20055;-67
2022/03/16 10:01:36;;;;;;;18.25;11.13;;;11.20;88.00;;;;;;5048617;28;20041;-64
2022/03/16 10:04:06;;;;;;;23.02;12.88;;;11.20;83.60;;;;;;5055861;28;20036;-67
2022/03/16 10:06:34;;;;;;;21.73;12.67;;;11.20;86.70;;;;;;5061028;28;20094;-65
2022/03/16 10:15:03;;;;;;;18.42;10.68;;;11.50;83.60;;;;;;5062666;28;20123;-67
2022/03/16 10:17:44;;;;;;;19.15;11.27;;;11.50;81.80;;;;;;5051966;28;20036;-65
2022/03/16 10:20:11;;;;;;;19.45;10.73;;;11.50;83.70;;;;;;5048937;28;20186;-67
2022/03/16 10:22:40;;;;;;;17.77;10.70;;;11.60;80.50;;;;;;5048023;28;20059;-64
2022/03/16 10:25:07;;;;;;;17.98;9.85;;;11.70;81.90;;;;;;5054976;28;20029;-67
2022/03/16 10:27:37;;;;;;;22.60;11.93;;;11.80;78.90;;;;;;5049194;28;20044;-65
2022/03/16 10:30:05;;;;;;;20.67;10.77;;;11.80;79.00;;;;;;5063780;28;20529;-66
2022/03/16 10:32:31;;;;;;;19.77;10.98;;;11.90;80.90;;;;;;5056286;28;20134;-63
2022/03/16 10:34:57;;;;;;;21.60;12.25;;;12.00;79.90;;;;;;5048404;28;20045;-68
2022/03/16 10:37:24;;;;;;;17.85;10.40;;;12.10;79.80;;;;;;5054221;28;20063;-64
2022/03/16 10:39:51;;;;;;;22.30;11.43;;;12.10;77.40;;;;;;5037569;28;20029;-66
2022/03/16 10:48:33;;;;;;;22.33;12.05;;;12.20;74.20;;;;;;5056298;28;20489;-67
2022/03/16 10:50:58;;;;;;;23.75;12.35;;;12.30;73.40;;;;;;5046810;28;20045;-64
2022/03/16 10:53:28;;;;;;;21.48;11.38;;;12.40;78.60;;;;;;5047194;28;20428;-65
2022/03/16 10:55:56;;;;;;;21.67;11.68;;;12.40;77.20;;;;;;5047629;28;20041;-64
2022/03/16 10:58:23;;;;;;;22.92;11.65;;;12.40;76.00;;;;;;5037866;28;20068;-67
2022/03/16 11:00:52;;;;;;;23.00;11.95;;;12.30;75.50;;;;;;5063717;28;20036;-66
2022/03/16 11:03:22;;;;;;;24.45;11.82;;;12.50;76.70;;;;;;5049710;28;20534;-68
2022/03/16 11:05:48;;;;;;;22.23;12.73;;;12.50;74.00;;;;;;5053875;28;20056;-64
2022/03/16 11:08:15;;;;;;;23.00;13.05;;;12.60;75.40;;;;;;5066645;28;20056;-64
2022/03/16 11:10:42;;;;;;;23.33;12.55;;;12.70;71.20;;;;;;5059418;28;20786;-67
2022/03/16 11:15:59;;;;;;;22.17;11.88;;;12.80;72.70;;;;;;5049027;28;20076;-65
2022/03/16 11:18:25;;;;;;;21.92;11.93;;;12.80;71.40;;;;;;5048043;28;20551;-64
2022/03/16 11:20:54;;;;;;;21.50;11.95;;;12.80;75.10;;;;;;5057489;28;20052;-66
2022/03/16 11:27:09;;;;;;;20.05;11.30;;;13.00;73.10;;;;;;5056517;28;20146;-66
2022/03/16 11:30:09;;;;;;;22.88;11.45;;;12.90;70.10;;;;;;5005631;28;20050;-66
2022/03/16 11:32:58;;;;;;;20.58;10.98;;;13.00;71.80;;;;;;5007139;28;20038;-65
2022/03/16 11:35:35;;;;;;;22.15;12.35;;;13.00;69.80;;;;;;5041903;28;20053;-66
2022/03/16 11:38:10;;;;;;;22.95;12.07;;;13.10;71.50;;;;;;5037245;28;20052;-68
2022/03/16 11:40:43;;;;;;;23.27;12.40;;;13.10;70.50;;;;;;5030494;28;20040;-67
2022/03/16 11:43:11;;;;;;;22.27;12.52;;;13.10;72.60;;;;;;5050842;28;20033;-65
2022/03/16 11:45:43;;;;;;;24.15;11.68;;;13.20;72.80;;;;;;5064573;28;20075;-66
2022/03/16 11:48:34;;;;;;;22.38;12.30;;;13.20;71.10;;;;;;5067594;28;20094;-64
2022/03/16 11:51:09;;;;;;;20.13;12.00;;;13.20;69.10;;;;;;5064845;28;20040;-65
2022/03/16 11:53:46;;;;;;;23.27;12.73;;;13.20;69.60;;;;;;5072789;28;20114;-64
2022/03/16 11:56:23;;;;;;;21.95;11.85;;;13.10;69.60;;;;;;5042195;28;20047;-64
2022/03/16 11:58:54;;;;;;;17.35;10.18;;;13.30;70.90;;;;;;5059605;28;20086;-66
2022/03/16 12:01:29;;;;;;;18.17;10.98;;;13.30;67.60;;;;;;5055737;28;20041;-66
2022/03/16 12:04:08;;;;;;;24.52;11.20;;;13.30;69.80;;;;;;5059966;28;20071;-65
2022/03/16 12:07:09;;;;;;;23.25;12.40;;;13.30;66.50;;;;;;5058665;28;20036;-67
2022/03/16 12:09:42;;;;;;;23.55;12.57;;;13.40;68.00;;;;;;5046442;28;20040;-66
2022/03/16 12:15:00;;;;;;;19.27;11.18;;;13.40;68.90;;;;;;5058490;28;20060;-64
2022/03/16 12:17:26;;;;;;;22.50;12.55;;;13.50;68.80;;;;;;5064334;28;20036;-66
2022/03/16 12:20:15;;;;;;;20.35;12.13;;;13.60;71.10;;;;;;5052687;28;20056;-66
2022/03/16 12:22:52;;;;;;;20.83;11.48;;;13.70;66.40;;;;;;5049181;28;20040;-64
2022/03/16 12:25:27;;;;;;;20.85;11.57;;;13.70;67.40;;;;;;5052078;28;20043;-66
2022/03/16 12:30:43;;;;;;;20.88;11.63;;;13.70;66.10;;;;;;5053690;28;20048;-66
2022/03/16 12:33:16;;;;;;;20.75;12.52;;;13.70;69.10;;;;;;5059799;28;20469;-66
2022/03/16 12:35:42;;;;;;;20.85;12.00;;;13.80;68.80;;;;;;5044930;28;20064;-64
2022/03/16 12:38:11;;;;;;;21.30;11.93;;;14.00;68.20;;;;;;5060710;28;20040;-64
2022/03/16 12:42:31;;;;;;;21.75;11.30;;;13.90;66.60;;;;;;5055667;28;20059;-65
2022/03/16 12:43:27;;;;;;;24.42;12.45;;;14.00;67.40;;;;;;5058302;28;20112;-65
2022/03/16 12:46:07;;;;;;;20.88;11.55;;;14.00;65.60;;;;;;5062343;28;20048;-64
2022/03/16 12:48:35;;;;;;;19.70;11.10;;;14.10;63.80;;;;;;5060959;28;20094;-67
2022/03/16 12:51:01;;;;;;;20.60;11.38;;;14.20;65.20;;;;;;5042623;28;20041;-66
2022/03/16 12:53:34;;;;;;;22.20;12.18;;;14.30;67.70;;;;;;5037350;28;20040;-66
2022/03/16 12:55:59;;;;;;;23.52;11.65;;;14.50;64.00;;;;;;5059545;28;20615;-68
2022/03/16 12:58:27;;;;;;;19.92;12.23;;;14.50;65.00;;;;;;5064849;28;20044;-66